sensor_id;sensor_type;location;lat;lon;timestamp;temperature;humidity
38265;DHT22;24062;47.480;8.768;2023-02-26T00:01:11;2.20;70.00
38265;DHT22;24062;47.480;8.768;2023-02-26T00:03:40;2.20;69.80
38265;DHT22;24062;47.480;8.768;2023-02-26T00:06:07;2.20;69.70
38265;DHT22;24062;47.480;8.768;2023-02-26T00:08:34;2.10;69.20
38265;DHT22;24062;47.480;8.768;2023-02-26T00:11:01;2.10;69.10
38265;DHT22;24062;47.480;8.768;2023-02-26T00:13:32;2.10;69.10
38265;DHT22;24062;47.480;8.768;2023-02-26T00:16:00;2.00;69.00
38265;DHT22;24062;47.480;8.768;2023-02-26T00:18:28;2.00;69.40
38265;DHT22;24062;47.480;8.768;2023-02-26T00:20:57;2.10;69.00
38265;DHT22;24062;47.480;8.768;2023-02-26T00:23:24;2.00;69.10
38265;DHT22;24062;47.480;8.768;2023-02-26T00:25:51;2.10;69.10
38265;DHT22;24062;47.480;8.768;2023-02-26T00:28:18;2.00;68.70
38265;DHT22;24062;47.480;8.768;2023-02-26T00:30:45;2.00;68.90
38265;DHT22;24062;47.480;8.768;2023-02-26T00:33:13;2.00;69.10
38265;DHT22;24062;47.480;8.768;2023-02-26T00:35:40;2.10;69.40
38265;DHT22;24062;47.480;8.768;2023-02-26T00:38:10;2.10;68.80
38265;DHT22;24062;47.480;8.768;2023-02-26T00:40:42;2.10;68.60
38265;DHT22;24062;47.480;8.768;2023-02-26T00:43:14;2.00;68.40
38265;DHT22;24062;47.480;8.768;2023-02-26T00:45:44;2.00;68.40
38265;DHT22;24062;47.480;8.768;2023-02-26T00:48:21;1.90;68.80
38265;DHT22;24062;47.480;8.768;2023-02-26T00:50:58;1.90;68.60
38265;DHT22;24062;47.480;8.768;2023-02-26T00:53:34;1.80;68.40
38265;DHT22;24062;47.480;8.768;2023-02-26T00:56:05;1.80;69.20
38265;DHT22;24062;47.480;8.768;2023-02-26T00:58:32;1.80;69.60
38265;DHT22;24062;47.480;8.768;2023-02-26T01:00:59;1.80;70.00
38265;DHT22;24062;47.480;8.768;2023-02-26T01:03:27;1.80;70.10
38265;DHT22;24062;47.480;8.768;2023-02-26T01:05:54;1.90;70.40
38265;DHT22;24062;47.480;8.768;2023-02-26T01:08:26;1.90;70.50
38265;DHT22;24062;47.480;8.768;2023-02-26T01:10:58;1.90;70.60
38265;DHT22;24062;47.480;8.768;2023-02-26T01:13:25;1.90;70.40
38265;DHT22;24062;47.480;8.768;2023-02-26T01:15:57;1.90;70.80
38265;DHT22;24062;47.480;8.768;2023-02-26T01:18:34;2.00;70.90
38265;DHT22;24062;47.480;8.768;2023-02-26T01:21:05;2.00;70.80
38265;DHT22;24062;47.480;8.768;2023-02-26T01:23:38;1.90;70.60
38265;DHT22;24062;47.480;8.768;2023-02-26T01:26:11;1.90;70.80
38265;DHT22;24062;47.480;8.768;2023-02-26T01:28:41;1.90;71.00
38265;DHT22;24062;47.480;8.768;2023-02-26T01:31:17;1.90;71.10
38265;DHT22;24062;47.480;8.768;2023-02-26T01:33:53;1.90;71.30
38265;DHT22;24062;47.480;8.768;2023-02-26T01:36:23;2.00;71.30
38265;DHT22;24062;47.480;8.768;2023-02-26T01:38:55;1.90;71.00
38265;DHT22;24062;47.480;8.768;2023-02-26T01:41:32;1.90;71.10
38265;DHT22;24062;47.480;8.768;2023-02-26T01:44:12;1.90;71.30
38265;DHT22;24062;47.480;8.768;2023-02-26T01:47:05;1.90;71.00
38265;DHT22;24062;47.480;8.768;2023-02-26T01:49:37;1.90;70.90
38265;DHT22;24062;47.480;8.768;2023-02-26T01:52:05;1.80;70.60
38265;DHT22;24062;47.480;8.768;2023-02-26T01:54:34;1.70;71.00
38265;DHT22;24062;47.480;8.768;2023-02-26T01:57:06;1.60;71.30
38265;DHT22;24062;47.480;8.768;2023-02-26T01:59:37;1.60;71.00
38265;DHT22;24062;47.480;8.768;2023-02-26T02:02:07;1.60;71.40
38265;DHT22;24062;47.480;8.768;2023-02-26T02:04:35;1.60;71.70
38265;DHT22;24062;47.480;8.768;2023-02-26T02:07:03;1.60;71.60
38265;DHT22;24062;47.480;8.768;2023-02-26T02:09:30;1.60;71.30
38265;DHT22;24062;47.480;8.768;2023-02-26T02:12:13;1.60;71.30
38265;DHT22;24062;47.480;8.768;2023-02-26T02:14:55;1.60;71.70
38265;DHT22;24062;47.480;8.768;2023-02-26T02:17:36;1.60;71.50
38265;DHT22;24062;47.480;8.768;2023-02-26T02:23:18;1.50;71.10
38265;DHT22;24062;47.480;8.768;2023-02-26T02:29:27;1.40;70.50
38265;DHT22;24062;47.480;8.768;2023-02-26T02:32:03;1.40;70.40
38265;DHT22;24062;47.480;8.768;2023-02-26T02:34:35;1.40;68.90
38265;DHT22;24062;47.480;8.768;2023-02-26T02:37:06;1.30;69.10
38265;DHT22;24062;47.480;8.768;2023-02-26T02:39:37;1.20;68.10
38265;DHT22;24062;47.480;8.768;2023-02-26T02:42:08;1.10;69.40
38265;DHT22;24062;47.480;8.768;2023-02-26T02:44:44;1.10;68.30
38265;DHT22;24062;47.480;8.768;2023-02-26T02:47:14;1.10;68.80
38265;DHT22;24062;47.480;8.768;2023-02-26T02:49:47;1.20;68.00
38265;DHT22;24062;47.480;8.768;2023-02-26T02:52:18;1.10;67.30
38265;DHT22;24062;47.480;8.768;2023-02-26T02:54:49;1.10;67.50
38265;DHT22;24062;47.480;8.768;2023-02-26T02:57:20;1.00;67.20
38265;DHT22;24062;47.480;8.768;2023-02-26T02:59:49;1.00;67.10
38265;DHT22;24062;47.480;8.768;2023-02-26T03:02:21;1.00;66.70
38265;DHT22;24062;47.480;8.768;2023-02-26T03:04:49;1.00;66.50
38265;DHT22;24062;47.480;8.768;2023-02-26T03:07:16;0.90;66.70
38265;DHT22;24062;47.480;8.768;2023-02-26T03:09:43;0.90;66.90
38265;DHT22;24062;47.480;8.768;2023-02-26T03:12:11;0.80;65.50
38265;DHT22;24062;47.480;8.768;2023-02-26T03:14:38;0.80;65.20
38265;DHT22;24062;47.480;8.768;2023-02-26T03:17:15;0.70;65.50
38265;DHT22;24062;47.480;8.768;2023-02-26T03:19:53;0.70;65.40
38265;DHT22;24062;47.480;8.768;2023-02-26T03:22:28;0.60;64.90
38265;DHT22;24062;47.480;8.768;2023-02-26T03:25:02;0.60;65.00
38265;DHT22;24062;47.480;8.768;2023-02-26T03:27:34;0.60;65.00
38265;DHT22;24062;47.480;8.768;2023-02-26T03:30:04;0.60;65.40
38265;DHT22;24062;47.480;8.768;2023-02-26T03:32:40;0.60;65.30
38265;DHT22;24062;47.480;8.768;2023-02-26T03:35:12;0.60;65.30
38265;DHT22;24062;47.480;8.768;2023-02-26T03:37:44;0.70;65.10
38265;DHT22;24062;47.480;8.768;2023-02-26T03:40:15;0.60;65.20
38265;DHT22;24062;47.480;8.768;2023-02-26T03:42:47;0.60;65.80
38265;DHT22;24062;47.480;8.768;2023-02-26T03:45:18;0.60;65.00
38265;DHT22;24062;47.480;8.768;2023-02-26T03:47:49;0.50;65.50
38265;DHT22;24062;47.480;8.768;2023-02-26T03:50:23;0.60;66.20
38265;DHT22;24062;47.480;8.768;2023-02-26T03:52:53;0.60;66.30
38265;DHT22;24062;47.480;8.768;2023-02-26T03:55:24;0.70;66.60
38265;DHT22;24062;47.480;8.768;2023-02-26T03:57:54;0.70;66.50
38265;DHT22;24062;47.480;8.768;2023-02-26T04:00:21;0.60;66.00
38265;DHT22;24062;47.480;8.768;2023-02-26T04:02:55;0.50;66.30
38265;DHT22;24062;47.480;8.768;2023-02-26T04:05:27;0.40;66.90
38265;DHT22;24062;47.480;8.768;2023-02-26T04:07:56;0.50;67.50
38265;DHT22;24062;47.480;8.768;2023-02-26T04:10:28;0.40;67.10
38265;DHT22;24062;47.480;8.768;2023-02-26T04:12:58;0.40;67.00
38265;DHT22;24062;47.480;8.768;2023-02-26T04:15:25;0.40;67.30
38265;DHT22;24062;47.480;8.768;2023-02-26T04:17:52;0.50;67.60
38265;DHT22;24062;47.480;8.768;2023-02-26T04:20:19;0.40;67.50
38265;DHT22;24062;47.480;8.768;2023-02-26T04:22:48;0.40;67.70
38265;DHT22;24062;47.480;8.768;2023-02-26T04:25:15;0.40;67.90
38265;DHT22;24062;47.480;8.768;2023-02-26T04:27:41;0.50;67.80
38265;DHT22;24062;47.480;8.768;2023-02-26T04:30:10;0.50;67.80
38265;DHT22;24062;47.480;8.768;2023-02-26T04:32:37;0.50;68.20
38265;DHT22;24062;47.480;8.768;2023-02-26T04:35:04;0.50;67.90
38265;DHT22;24062;47.480;8.768;2023-02-26T04:37:31;0.50;67.70
38265;DHT22;24062;47.480;8.768;2023-02-26T04:39:59;0.50;67.80
38265;DHT22;24062;47.480;8.768;2023-02-26T04:42:26;0.50;67.90
38265;DHT22;24062;47.480;8.768;2023-02-26T04:44:53;0.50;67.90
38265;DHT22;24062;47.480;8.768;2023-02-26T04:47:20;0.50;67.90
38265;DHT22;24062;47.480;8.768;2023-02-26T04:49:47;0.50;67.30
38265;DHT22;24062;47.480;8.768;2023-02-26T04:52:14;0.50;67.70
38265;DHT22;24062;47.480;8.768;2023-02-26T04:54:41;0.50;67.30
38265;DHT22;24062;47.480;8.768;2023-02-26T04:57:09;0.40;67.30
38265;DHT22;24062;47.480;8.768;2023-02-26T04:59:36;0.50;67.50
38265;DHT22;24062;47.480;8.768;2023-02-26T05:02:04;0.50;67.40
38265;DHT22;24062;47.480;8.768;2023-02-26T05:04:31;0.50;66.90
38265;DHT22;24062;47.480;8.768;2023-02-26T05:06:58;0.40;66.90
38265;DHT22;24062;47.480;8.768;2023-02-26T05:09:25;0.40;66.80
38265;DHT22;24062;47.480;8.768;2023-02-26T05:11:52;0.40;66.10
38265;DHT22;24062;47.480;8.768;2023-02-26T05:14:20;0.30;65.70
38265;DHT22;24062;47.480;8.768;2023-02-26T05:16:47;0.20;66.00
38265;DHT22;24062;47.480;8.768;2023-02-26T05:19:14;0.30;66.40
38265;DHT22;24062;47.480;8.768;2023-02-26T05:21:41;0.30;66.50
38265;DHT22;24062;47.480;8.768;2023-02-26T05:24:08;0.40;66.70
38265;DHT22;24062;47.480;8.768;2023-02-26T05:26:35;0.40;66.50
38265;DHT22;24062;47.480;8.768;2023-02-26T05:29:02;0.40;65.90
38265;DHT22;24062;47.480;8.768;2023-02-26T05:31:31;0.40;66.10
38265;DHT22;24062;47.480;8.768;2023-02-26T05:33:58;0.40;65.90
38265;DHT22;24062;47.480;8.768;2023-02-26T05:36:25;0.30;64.40
38265;DHT22;24062;47.480;8.768;2023-02-26T05:38:52;0.30;64.30
38265;DHT22;24062;47.480;8.768;2023-02-26T05:41:19;0.10;64.30
38265;DHT22;24062;47.480;8.768;2023-02-26T05:43:46;0.10;64.10
38265;DHT22;24062;47.480;8.768;2023-02-26T05:46:13;0.00;63.50
38265;DHT22;24062;47.480;8.768;2023-02-26T05:48:41;-0.10;63.80
38265;DHT22;24062;47.480;8.768;2023-02-26T05:51:08;0.00;64.70
38265;DHT22;24062;47.480;8.768;2023-02-26T05:53:35;0.00;64.60
38265;DHT22;24062;47.480;8.768;2023-02-26T05:56:02;0.00;64.30
38265;DHT22;24062;47.480;8.768;2023-02-26T05:58:30;0.00;64.10
38265;DHT22;24062;47.480;8.768;2023-02-26T06:00:59;0.00;63.60
38265;DHT22;24062;47.480;8.768;2023-02-26T06:03:26;-0.10;63.60
38265;DHT22;24062;47.480;8.768;2023-02-26T06:05:54;-0.20;63.90
38265;DHT22;24062;47.480;8.768;2023-02-26T06:08:21;-0.20;63.90
38265;DHT22;24062;47.480;8.768;2023-02-26T06:10:49;-0.30;63.90
38265;DHT22;24062;47.480;8.768;2023-02-26T06:13:17;-0.30;64.00
38265;DHT22;24062;47.480;8.768;2023-02-26T06:15:44;-0.30;64.20
38265;DHT22;24062;47.480;8.768;2023-02-26T06:18:11;-0.20;64.50
38265;DHT22;24062;47.480;8.768;2023-02-26T06:20:38;-0.20;64.10
38265;DHT22;24062;47.480;8.768;2023-02-26T06:23:06;-0.20;64.10
38265;DHT22;24062;47.480;8.768;2023-02-26T06:25:33;-0.30;64.00
38265;DHT22;24062;47.480;8.768;2023-02-26T06:28:01;-0.40;64.10
38265;DHT22;24062;47.480;8.768;2023-02-26T06:30:28;-0.40;64.20
38265;DHT22;24062;47.480;8.768;2023-02-26T06:32:55;-0.40;64.40
38265;DHT22;24062;47.480;8.768;2023-02-26T06:35:22;-0.30;64.60
38265;DHT22;24062;47.480;8.768;2023-02-26T06:37:49;-0.30;64.60
38265;DHT22;24062;47.480;8.768;2023-02-26T06:40:17;-0.30;64.60
38265;DHT22;24062;47.480;8.768;2023-02-26T06:42:44;-0.30;64.50
38265;DHT22;24062;47.480;8.768;2023-02-26T06:45:11;-0.20;65.10
38265;DHT22;24062;47.480;8.768;2023-02-26T06:47:38;-0.10;65.40
38265;DHT22;24062;47.480;8.768;2023-02-26T06:50:06;0.10;65.50
38265;DHT22;24062;47.480;8.768;2023-02-26T06:52:33;0.20;65.10
38265;DHT22;24062;47.480;8.768;2023-02-26T06:55:00;0.20;64.90
38265;DHT22;24062;47.480;8.768;2023-02-26T06:57:29;0.20;64.70
38265;DHT22;24062;47.480;8.768;2023-02-26T06:59:56;0.30;65.10
38265;DHT22;24062;47.480;8.768;2023-02-26T07:02:23;0.20;64.30
38265;DHT22;24062;47.480;8.768;2023-02-26T07:04:50;0.20;64.20
38265;DHT22;24062;47.480;8.768;2023-02-26T07:07:17;0.20;64.10
38265;DHT22;24062;47.480;8.768;2023-02-26T07:09:44;0.10;63.90
38265;DHT22;24062;47.480;8.768;2023-02-26T07:12:11;0.00;63.20
38265;DHT22;24062;47.480;8.768;2023-02-26T07:14:40;-0.20;63.20
38265;DHT22;24062;47.480;8.768;2023-02-26T07:17:09;-0.20;63.00
38265;DHT22;24062;47.480;8.768;2023-02-26T07:19:44;-0.30;62.90
38265;DHT22;24062;47.480;8.768;2023-02-26T07:22:11;-0.40;62.80
38265;DHT22;24062;47.480;8.768;2023-02-26T07:24:38;-0.40;62.50
38265;DHT22;24062;47.480;8.768;2023-02-26T07:27:05;-0.50;62.90
38265;DHT22;24062;47.480;8.768;2023-02-26T07:29:32;-0.50;62.50
38265;DHT22;24062;47.480;8.768;2023-02-26T07:32:00;-0.50;62.20
38265;DHT22;24062;47.480;8.768;2023-02-26T07:34:27;-0.60;62.40
38265;DHT22;24062;47.480;8.768;2023-02-26T07:36:54;-0.50;62.60
38265;DHT22;24062;47.480;8.768;2023-02-26T07:39:21;-0.50;62.80
38265;DHT22;24062;47.480;8.768;2023-02-26T07:41:48;-0.50;62.30
38265;DHT22;24062;47.480;8.768;2023-02-26T07:44:15;-0.50;61.80
38265;DHT22;24062;47.480;8.768;2023-02-26T07:46:42;-0.40;62.50
38265;DHT22;24062;47.480;8.768;2023-02-26T07:49:10;-0.30;63.10
38265;DHT22;24062;47.480;8.768;2023-02-26T07:51:37;0.00;62.80
38265;DHT22;24062;47.480;8.768;2023-02-26T07:54:05;0.10;62.70
38265;DHT22;24062;47.480;8.768;2023-02-26T07:56:32;0.50;62.80
38265;DHT22;24062;47.480;8.768;2023-02-26T07:58:59;0.70;63.10
38265;DHT22;24062;47.480;8.768;2023-02-26T08:01:26;0.80;61.70
38265;DHT22;24062;47.480;8.768;2023-02-26T08:03:53;0.60;60.50
38265;DHT22;24062;47.480;8.768;2023-02-26T08:06:21;0.50;60.70
38265;DHT22;24062;47.480;8.768;2023-02-26T08:08:48;0.50;61.10
38265;DHT22;24062;47.480;8.768;2023-02-26T08:11:15;0.60;61.80
38265;DHT22;24062;47.480;8.768;2023-02-26T08:13:42;0.70;62.20
38265;DHT22;24062;47.480;8.768;2023-02-26T08:16:09;0.70;60.80
38265;DHT22;24062;47.480;8.768;2023-02-26T08:18:36;0.80;61.40
38265;DHT22;24062;47.480;8.768;2023-02-26T08:21:03;0.90;61.30
38265;DHT22;24062;47.480;8.768;2023-02-26T08:23:32;1.00;61.50
38265;DHT22;24062;47.480;8.768;2023-02-26T08:26:00;1.10;60.40
38265;DHT22;24062;47.480;8.768;2023-02-26T08:28:27;1.10;59.30
38265;DHT22;24062;47.480;8.768;2023-02-26T08:30:54;1.10;59.60
38265;DHT22;24062;47.480;8.768;2023-02-26T08:33:21;1.00;58.80
38265;DHT22;24062;47.480;8.768;2023-02-26T08:35:48;1.20;59.60
38265;DHT22;24062;47.480;8.768;2023-02-26T08:38:15;1.50;59.50
38265;DHT22;24062;47.480;8.768;2023-02-26T08:40:44;1.60;58.90
38265;DHT22;24062;47.480;8.768;2023-02-26T08:43:11;1.50;57.90
38265;DHT22;24062;47.480;8.768;2023-02-26T08:45:38;1.30;57.70
38265;DHT22;24062;47.480;8.768;2023-02-26T08:48:05;1.20;57.80
38265;DHT22;24062;47.480;8.768;2023-02-26T08:50:32;1.10;58.50
38265;DHT22;24062;47.480;8.768;2023-02-26T08:52:59;1.00;58.40
38265;DHT22;24062;47.480;8.768;2023-02-26T08:55:26;1.00;57.80
38265;DHT22;24062;47.480;8.768;2023-02-26T08:57:54;0.90;58.00
38265;DHT22;24062;47.480;8.768;2023-02-26T09:00:21;0.90;58.50
38265;DHT22;24062;47.480;8.768;2023-02-26T09:02:48;1.00;58.30
38265;DHT22;24062;47.480;8.768;2023-02-26T09:05:16;1.30;59.20
38265;DHT22;24062;47.480;8.768;2023-02-26T09:07:44;1.40;58.50
38265;DHT22;24062;47.480;8.768;2023-02-26T09:10:12;1.50;58.40
38265;DHT22;24062;47.480;8.768;2023-02-26T09:12:40;1.60;58.10
38265;DHT22;24062;47.480;8.768;2023-02-26T09:15:10;1.50;57.20
38265;DHT22;24062;47.480;8.768;2023-02-26T09:17:37;1.30;56.50
38265;DHT22;24062;47.480;8.768;2023-02-26T09:20:05;1.20;57.20
38265;DHT22;24062;47.480;8.768;2023-02-26T09:22:32;1.20;57.80
38265;DHT22;24062;47.480;8.768;2023-02-26T09:25:00;1.20;57.30
38265;DHT22;24062;47.480;8.768;2023-02-26T09:27:27;1.20;57.40
38265;DHT22;24062;47.480;8.768;2023-02-26T09:29:53;1.30;57.80
38265;DHT22;24062;47.480;8.768;2023-02-26T09:32:22;1.50;57.80
38265;DHT22;24062;47.480;8.768;2023-02-26T09:34:50;1.50;56.90
38265;DHT22;24062;47.480;8.768;2023-02-26T09:37:18;1.40;57.40
38265;DHT22;24062;47.480;8.768;2023-02-26T09:39:45;1.40;57.50
38265;DHT22;24062;47.480;8.768;2023-02-26T09:42:19;1.50;57.50
38265;DHT22;24062;47.480;8.768;2023-02-26T09:44:50;1.70;57.30
38265;DHT22;24062;47.480;8.768;2023-02-26T09:47:20;1.70;56.50
38265;DHT22;24062;47.480;8.768;2023-02-26T09:49:54;1.70;56.60
38265;DHT22;24062;47.480;8.768;2023-02-26T09:52:24;1.80;56.80
38265;DHT22;24062;47.480;8.768;2023-02-26T09:54:55;1.80;56.40
38265;DHT22;24062;47.480;8.768;2023-02-26T09:57:28;1.70;55.30
38265;DHT22;24062;47.480;8.768;2023-02-26T09:59:56;1.40;54.40
38265;DHT22;24062;47.480;8.768;2023-02-26T10:02:32;1.20;54.60
38265;DHT22;24062;47.480;8.768;2023-02-26T10:05:14;1.20;54.60
38265;DHT22;24062;47.480;8.768;2023-02-26T10:07:45;1.20;54.90
38265;DHT22;24062;47.480;8.768;2023-02-26T10:10:20;1.40;55.10
38265;DHT22;24062;47.480;8.768;2023-02-26T10:12:49;1.40;54.30
38265;DHT22;24062;47.480;8.768;2023-02-26T10:15:20;1.40;54.40
38265;DHT22;24062;47.480;8.768;2023-02-26T10:17:56;1.40;54.70
38265;DHT22;24062;47.480;8.768;2023-02-26T10:20:29;1.40;54.50
38265;DHT22;24062;47.480;8.768;2023-02-26T10:23:00;1.30;54.80
38265;DHT22;24062;47.480;8.768;2023-02-26T10:25:33;1.30;54.40
38265;DHT22;24062;47.480;8.768;2023-02-26T10:28:14;1.30;54.90
38265;DHT22;24062;47.480;8.768;2023-02-26T10:30:48;1.60;55.00
38265;DHT22;24062;47.480;8.768;2023-02-26T10:33:20;1.70;54.60
38265;DHT22;24062;47.480;8.768;2023-02-26T10:35:56;2.10;55.90
38265;DHT22;24062;47.480;8.768;2023-02-26T10:38:26;2.50;55.20
38265;DHT22;24062;47.480;8.768;2023-02-26T10:40:59;2.80;55.60
38265;DHT22;24062;47.480;8.768;2023-02-26T10:43:31;3.10;54.60
38265;DHT22;24062;47.480;8.768;2023-02-26T10:46:08;3.20;54.00
38265;DHT22;24062;47.480;8.768;2023-02-26T10:48:48;3.40;53.70
38265;DHT22;24062;47.480;8.768;2023-02-26T10:51:22;3.50;53.10
38265;DHT22;24062;47.480;8.768;2023-02-26T10:53:54;3.60;53.60
38265;DHT22;24062;47.480;8.768;2023-02-26T10:56:25;3.70;53.00
38265;DHT22;24062;47.480;8.768;2023-02-26T10:58:53;3.70;52.80
38265;DHT22;24062;47.480;8.768;2023-02-26T11:01:22;3.80;52.80
38265;DHT22;24062;47.480;8.768;2023-02-26T11:03:53;3.80;52.30
38265;DHT22;24062;47.480;8.768;2023-02-26T11:06:27;3.90;52.80
38265;DHT22;24062;47.480;8.768;2023-02-26T11:08:56;4.20;51.50
38265;DHT22;24062;47.480;8.768;2023-02-26T11:11:41;4.20;52.50
38265;DHT22;24062;47.480;8.768;2023-02-26T11:14:08;4.50;52.60
38265;DHT22;24062;47.480;8.768;2023-02-26T11:16:42;4.80;52.20
38265;DHT22;24062;47.480;8.768;2023-02-26T11:19:12;5.00;51.90
38265;DHT22;24062;47.480;8.768;2023-02-26T11:21:44;5.30;52.70
38265;DHT22;24062;47.480;8.768;2023-02-26T11:24:15;5.70;52.80
38265;DHT22;24062;47.480;8.768;2023-02-26T11:26:47;5.60;50.60
38265;DHT22;24062;47.480;8.768;2023-02-26T11:29:17;5.20;49.00
38265;DHT22;24062;47.480;8.768;2023-02-26T11:31:47;4.60;48.70
38265;DHT22;24062;47.480;8.768;2023-02-26T11:34:14;4.30;49.10
38265;DHT22;24062;47.480;8.768;2023-02-26T11:36:43;4.20;49.30
38265;DHT22;24062;47.480;8.768;2023-02-26T11:39:15;4.10;49.00
38265;DHT22;24062;47.480;8.768;2023-02-26T11:41:44;3.80;48.40
38265;DHT22;24062;47.480;8.768;2023-02-26T11:44:14;3.60;49.30
38265;DHT22;24062;47.480;8.768;2023-02-26T11:46:45;3.80;50.30
38265;DHT22;24062;47.480;8.768;2023-02-26T11:49:17;4.20;51.20
38265;DHT22;24062;47.480;8.768;2023-02-26T11:51:47;4.30;48.70
38265;DHT22;24062;47.480;8.768;2023-02-26T11:54:27;4.00;48.60
38265;DHT22;24062;47.480;8.768;2023-02-26T11:57:03;3.60;48.30
38265;DHT22;24062;47.480;8.768;2023-02-26T11:59:33;3.40;48.10
38265;DHT22;24062;47.480;8.768;2023-02-26T12:02:02;3.20;49.00
38265;DHT22;24062;47.480;8.768;2023-02-26T12:04:31;3.20;48.90
38265;DHT22;24062;47.480;8.768;2023-02-26T12:06:59;3.20;49.00
38265;DHT22;24062;47.480;8.768;2023-02-26T12:09:26;3.50;50.30
38265;DHT22;24062;47.480;8.768;2023-02-26T12:12:06;3.70;50.30
38265;DHT22;24062;47.480;8.768;2023-02-26T12:14:57;4.00;50.20
38265;DHT22;24062;47.480;8.768;2023-02-26T12:17:36;4.40;49.90
38265;DHT22;24062;47.480;8.768;2023-02-26T12:20:16;4.50;49.20
38265;DHT22;24062;47.480;8.768;2023-02-26T12:22:50;4.40;48.70
38265;DHT22;24062;47.480;8.768;2023-02-26T12:25:54;4.40;48.80
38265;DHT22;24062;47.480;8.768;2023-02-26T12:28:40;4.40;48.60
38265;DHT22;24062;47.480;8.768;2023-02-26T12:31:30;4.30;48.70
38265;DHT22;24062;47.480;8.768;2023-02-26T12:34:20;4.10;48.80
38265;DHT22;24062;47.480;8.768;2023-02-26T12:37:04;4.00;48.40
38265;DHT22;24062;47.480;8.768;2023-02-26T12:39:48;3.80;47.20
38265;DHT22;24062;47.480;8.768;2023-02-26T12:42:29;3.30;47.30
38265;DHT22;24062;47.480;8.768;2023-02-26T12:45:09;3.10;48.00
38265;DHT22;24062;47.480;8.768;2023-02-26T12:47:46;3.20;48.90
38265;DHT22;24062;47.480;8.768;2023-02-26T12:50:33;3.40;49.20
38265;DHT22;24062;47.480;8.768;2023-02-26T12:53:41;3.70;48.90
38265;DHT22;24062;47.480;8.768;2023-02-26T12:59:25;4.30;48.60
38265;DHT22;24062;47.480;8.768;2023-02-26T13:02:03;4.10;47.80
38265;DHT22;24062;47.480;8.768;2023-02-26T13:04:55;4.10;48.20
38265;DHT22;24062;47.480;8.768;2023-02-26T13:07:39;4.20;48.40
38265;DHT22;24062;47.480;8.768;2023-02-26T13:10:20;4.10;47.90
38265;DHT22;24062;47.480;8.768;2023-02-26T13:13:02;3.90;47.50
38265;DHT22;24062;47.480;8.768;2023-02-26T13:15:42;3.70;47.80
38265;DHT22;24062;47.480;8.768;2023-02-26T13:18:20;3.70;48.40
38265;DHT22;24062;47.480;8.768;2023-02-26T13:20:56;3.60;48.70
38265;DHT22;24062;47.480;8.768;2023-02-26T13:23:29;3.70;48.70
38265;DHT22;24062;47.480;8.768;2023-02-26T13:25:59;3.80;48.70
38265;DHT22;24062;47.480;8.768;2023-02-26T13:28:35;3.60;47.80
38265;DHT22;24062;47.480;8.768;2023-02-26T13:31:05;3.40;48.20
38265;DHT22;24062;47.480;8.768;2023-02-26T13:33:35;3.20;48.40
38265;DHT22;24062;47.480;8.768;2023-02-26T13:36:03;3.00;48.30
38265;DHT22;24062;47.480;8.768;2023-02-26T13:38:42;2.80;48.40
38265;DHT22;24062;47.480;8.768;2023-02-26T13:41:14;2.80;48.90
38265;DHT22;24062;47.480;8.768;2023-02-26T13:44:03;3.20;49.60
38265;DHT22;24062;47.480;8.768;2023-02-26T13:46:51;3.50;50.00
38265;DHT22;24062;47.480;8.768;2023-02-26T13:49:28;3.70;49.30
38265;DHT22;24062;47.480;8.768;2023-02-26T13:51:56;3.50;49.00
38265;DHT22;24062;47.480;8.768;2023-02-26T13:54:41;3.40;49.70
38265;DHT22;24062;47.480;8.768;2023-02-26T13:57:22;3.80;50.70
38265;DHT22;24062;47.480;8.768;2023-02-26T13:59:59;3.90;49.70
38265;DHT22;24062;47.480;8.768;2023-02-26T14:02:43;3.90;50.10
38265;DHT22;24062;47.480;8.768;2023-02-26T14:08:50;3.30;49.60
38265;DHT22;24062;47.480;8.768;2023-02-26T14:11:37;3.10;50.50
38265;DHT22;24062;47.480;8.768;2023-02-26T14:14:16;3.00;50.80
38265;DHT22;24062;47.480;8.768;2023-02-26T14:16:48;2.90;50.70
38265;DHT22;24062;47.480;8.768;2023-02-26T14:19:23;2.80;51.00
38265;DHT22;24062;47.480;8.768;2023-02-26T14:21:53;2.90;51.60
38265;DHT22;24062;47.480;8.768;2023-02-26T14:24:29;3.10;52.10
38265;DHT22;24062;47.480;8.768;2023-02-26T14:27:21;3.20;51.50
38265;DHT22;24062;47.480;8.768;2023-02-26T14:30:03;3.10;51.30
38265;DHT22;24062;47.480;8.768;2023-02-26T14:32:33;3.20;51.00
38265;DHT22;24062;47.480;8.768;2023-02-26T14:35:04;3.40;50.90
38265;DHT22;24062;47.480;8.768;2023-02-26T14:37:32;3.60;51.30
38265;DHT22;24062;47.480;8.768;2023-02-26T14:40:05;4.00;51.40
38265;DHT22;24062;47.480;8.768;2023-02-26T14:42:36;5.30;51.40
38265;DHT22;24062;47.480;8.768;2023-02-26T14:45:17;7.50;51.40
38265;DHT22;24062;47.480;8.768;2023-02-26T14:47:50;7.80;47.60
38265;DHT22;24062;47.480;8.768;2023-02-26T14:50:20;7.40;44.80
38265;DHT22;24062;47.480;8.768;2023-02-26T14:53:07;7.30;47.30
38265;DHT22;24062;47.480;8.768;2023-02-26T14:55:44;7.80;46.90
38265;DHT22;24062;47.480;8.768;2023-02-26T14:58:29;9.00;47.80
38265;DHT22;24062;47.480;8.768;2023-02-26T15:01:09;9.10;43.60
38265;DHT22;24062;47.480;8.768;2023-02-26T15:06:44;14.30;50.90
38265;DHT22;24062;47.480;8.768;2023-02-26T15:09:16;15.60;44.80
38265;DHT22;24062;47.480;8.768;2023-02-26T15:12:11;16.30;44.00
38265;DHT22;24062;47.480;8.768;2023-02-26T15:17:47;12.90;38.30
38265;DHT22;24062;47.480;8.768;2023-02-26T15:20:26;11.30;37.70
38265;DHT22;24062;47.480;8.768;2023-02-26T15:23:13;9.60;38.50
38265;DHT22;24062;47.480;8.768;2023-02-26T15:25:46;8.00;39.70
38265;DHT22;24062;47.480;8.768;2023-02-26T15:28:18;6.90;40.90
38265;DHT22;24062;47.480;8.768;2023-02-26T15:30:48;6.10;40.70
38265;DHT22;24062;47.480;8.768;2023-02-26T15:33:17;5.40;41.10
38265;DHT22;24062;47.480;8.768;2023-02-26T15:35:47;4.90;41.50
38265;DHT22;24062;47.480;8.768;2023-02-26T15:38:15;4.60;41.70
38265;DHT22;24062;47.480;8.768;2023-02-26T15:40:42;4.50;42.60
38265;DHT22;24062;47.480;8.768;2023-02-26T15:43:14;4.40;42.80
38265;DHT22;24062;47.480;8.768;2023-02-26T15:45:43;4.40;43.00
38265;DHT22;24062;47.480;8.768;2023-02-26T15:48:13;4.40;42.70
38265;DHT22;24062;47.480;8.768;2023-02-26T15:50:43;4.00;42.80
38265;DHT22;24062;47.480;8.768;2023-02-26T15:53:16;4.10;43.50
38265;DHT22;24062;47.480;8.768;2023-02-26T15:55:46;4.00;43.50
38265;DHT22;24062;47.480;8.768;2023-02-26T15:58:26;4.20;44.60
38265;DHT22;24062;47.480;8.768;2023-02-26T16:00:55;4.10;43.50
38265;DHT22;24062;47.480;8.768;2023-02-26T16:03:26;3.80;43.40
38265;DHT22;24062;47.480;8.768;2023-02-26T16:05:54;3.70;43.80
38265;DHT22;24062;47.480;8.768;2023-02-26T16:08:23;3.50;44.20
38265;DHT22;24062;47.480;8.768;2023-02-26T16:10:51;3.30;44.30
38265;DHT22;24062;47.480;8.768;2023-02-26T16:13:26;3.00;44.10
38265;DHT22;24062;47.480;8.768;2023-02-26T16:15:57;2.90;45.30
38265;DHT22;24062;47.480;8.768;2023-02-26T16:18:25;2.70;45.90
38265;DHT22;24062;47.480;8.768;2023-02-26T16:20:54;2.60;46.00
38265;DHT22;24062;47.480;8.768;2023-02-26T16:23:28;2.40;46.40
38265;DHT22;24062;47.480;8.768;2023-02-26T16:25:59;2.40;46.90
38265;DHT22;24062;47.480;8.768;2023-02-26T16:28:29;2.30;46.50
38265;DHT22;24062;47.480;8.768;2023-02-26T16:30:59;2.20;47.50